Terminal Aerodrome Forecast
Issued by NWS Grand Forks, ND

Home | Current Version | Previous Version | Graphics & Text | Print | Product List | Glossary On
Versions: 1 2 3 4 5 6 7 8 9 10 11 12 13 14 15
834
FTUS43 KFGF 201138
TAFGFK
TAF
KGFK 201138Z 2012/2112 17008KT 2SM BR OVC004
      TEMPO 2012/2016 3/4SM BR OVC002
     FM201600 16008KT 3/4SM BR OVC003=

USA.gov is the U.S. government's official web portal to all federal, state and local government web resources and services.